Hammersmith, United Kingdom
Current Conditions -  °F | °C
As of 2:50 AM on Saturday 20 Dec 2014 (Local Time) from EGWU Reporting Station
Few Clouds Few Clouds  
Wind Chill: 34°   Ceiling: Unl
Heat Index: 39°   Visibility: 5mi
Dew Point: 36°   Wind: 7mph
Humidity: 87%   Direction: 220°SW
Pressure: 30.21"   Gusts: NA
Location:  51.49°N, 0.23°W
Report Text: EGWU 200250Z AUTO 22006KT 8000 // FEW044/// 04/02 Q1023
Loading
Personal Weather Stations






























Interactive Weather Map New forecast layout! Learn more

10-Day Weather Forecast

Advertisements
Track Severe Weather on mobile